createdAt,value
2022-10-16T00:00:09.627Z,24.10
2022-10-16T00:00:41.586Z,24.16
2022-10-16T00:01:14.155Z,24.18
2022-10-16T00:01:45.819Z,24.15
2022-10-16T00:02:17.581Z,24.19
2022-10-16T00:02:49.242Z,24.21
2022-10-16T00:03:20.928Z,24.20
2022-10-16T00:03:52.690Z,24.21
2022-10-16T00:04:24.216Z,24.20
2022-10-16T00:04:55.851Z,24.19
2022-10-16T00:05:27.440Z,24.20
2022-10-16T00:06:00.008Z,24.20
2022-10-16T00:06:31.701Z,24.16
2022-10-16T00:07:03.277Z,24.19
2022-10-16T00:07:34.895Z,24.18
2022-10-16T00:08:06.571Z,24.23
2022-10-16T00:08:38.500Z,24.23
2022-10-16T00:09:10.094Z,24.20
2022-10-16T00:09:41.681Z,24.23
2022-10-16T00:10:13.308Z,24.22
2022-10-16T00:10:44.973Z,24.23
2022-10-16T00:11:23.093Z,24.21
2022-10-16T00:12:31.030Z,24.24
2022-10-16T00:13:02.689Z,24.26
2022-10-16T00:13:34.415Z,24.26
2022-10-16T00:14:07.236Z,24.28
2022-10-16T00:14:38.840Z,24.27
2022-10-16T00:15:10.544Z,24.33
2022-10-16T00:15:42.126Z,24.31
2022-10-16T00:16:13.764Z,24.28
2022-10-16T00:16:45.342Z,24.32
2022-10-16T00:17:16.905Z,24.30
2022-10-16T00:17:48.606Z,24.30
2022-10-16T00:18:20.320Z,24.28
2022-10-16T00:18:52.162Z,24.25
2022-10-16T00:19:23.915Z,24.28
2022-10-16T00:19:55.527Z,24.24
2022-10-16T00:20:27.275Z,24.26
2022-10-16T00:21:08.468Z,24.31
2022-10-16T00:21:40.033Z,24.20
2022-10-16T00:22:11.580Z,24.05
2022-10-16T00:22:43.103Z,23.92
2022-10-16T00:23:14.699Z,23.90
2022-10-16T00:23:46.343Z,23.92
2022-10-16T00:24:18.005Z,24.01
2022-10-16T00:24:49.606Z,24.09
2022-10-16T00:25:21.123Z,24.09
2022-10-16T00:25:55.989Z,24.10
2022-10-16T00:26:27.863Z,24.17
2022-10-16T00:26:59.387Z,24.11
2022-10-16T00:27:30.894Z,24.15
2022-10-16T00:28:02.532Z,24.14
2022-10-16T00:28:34.233Z,24.13
2022-10-16T00:29:05.905Z,24.17
2022-10-16T00:29:37.565Z,24.12
2022-10-16T00:30:09.439Z,24.04
2022-10-16T00:30:41.024Z,24.09
2022-10-16T00:31:12.558Z,24.06
2022-10-16T00:31:44.103Z,24.11
2022-10-16T00:32:15.605Z,24.14
2022-10-16T00:32:47.077Z,24.11
2022-10-16T00:33:18.681Z,24.06
2022-10-16T00:33:50.364Z,24.10
2022-10-16T00:34:21.929Z,24.13
2022-10-16T00:34:53.461Z,24.10
2022-10-16T00:35:25.074Z,24.04
2022-10-16T00:35:58.548Z,24.10
2022-10-16T00:36:30.117Z,24.07
2022-10-16T00:37:01.711Z,24.09
2022-10-16T00:37:33.344Z,24.00
2022-10-16T00:38:04.951Z,24.08
2022-10-16T00:38:36.596Z,24.09
2022-10-16T00:39:08.194Z,24.13
2022-10-16T00:39:39.697Z,23.91
2022-10-16T00:40:11.488Z,23.89
2022-10-16T00:40:42.988Z,23.90
2022-10-16T00:41:15.460Z,23.93
2022-10-16T00:41:46.957Z,23.86
2022-10-16T00:42:18.950Z,23.84
2022-10-16T00:42:50.556Z,23.87
2022-10-16T00:43:40.731Z,23.97
2022-10-16T00:44:30.938Z,24.01
2022-10-16T00:45:02.595Z,23.99
2022-10-16T00:45:34.204Z,23.99
2022-10-16T00:46:09.371Z,24.02
2022-10-16T00:46:41.626Z,24.00
2022-10-16T00:47:19.903Z,24.01
2022-10-16T00:47:51.698Z,24.04
2022-10-16T00:48:23.195Z,24.03
2022-10-16T00:49:14.014Z,24.02
2022-10-16T00:49:45.627Z,24.05
2022-10-16T00:50:23.203Z,24.04
2022-10-16T00:50:54.833Z,24.06
2022-10-16T00:51:35.464Z,24.04
2022-10-16T00:52:07.040Z,24.04
2022-10-16T00:52:38.605Z,24.00
2022-10-16T00:53:10.262Z,23.99
2022-10-16T00:53:41.952Z,23.99
2022-10-16T00:54:20.883Z,23.99
2022-10-16T00:54:52.455Z,24.01
2022-10-16T00:55:24.103Z,23.99
2022-10-16T00:55:55.650Z,24.04
2022-10-16T00:56:27.242Z,24.03
2022-10-16T00:56:59.585Z,24.05
2022-10-16T00:57:31.242Z,24.05
2022-10-16T00:58:02.877Z,24.08
2022-10-16T00:58:34.437Z,24.08
2022-10-16T00:59:07.480Z,24.08
2022-10-16T00:59:41.994Z,24.08
2022-10-16T01:00:15.400Z,24.05
2022-10-16T01:00:46.938Z,24.06
2022-10-16T01:01:18.505Z,24.04
2022-10-16T01:01:50.053Z,23.91
2022-10-16T01:02:21.565Z,23.92
2022-10-16T01:02:56.599Z,23.93
2022-10-16T01:03:33.848Z,23.95
2022-10-16T01:04:05.332Z,24.00
2022-10-16T01:04:39.698Z,23.99
2022-10-16T01:05:11.251Z,23.99
2022-10-16T01:05:45.066Z,23.98
2022-10-16T01:06:34.973Z,24.03
2022-10-16T01:07:14.179Z,23.98
2022-10-16T01:07:59.660Z,24.00
2022-10-16T01:08:35.382Z,23.99
2022-10-16T01:09:12.430Z,23.99
2022-10-16T01:09:48.609Z,23.97
2022-10-16T01:10:35.005Z,24.00
2022-10-16T01:11:10.241Z,23.97
2022-10-16T01:11:44.390Z,23.98
2022-10-16T01:12:17.278Z,23.99
2022-10-16T01:12:53.166Z,23.98
2022-10-16T01:13:37.861Z,23.99
2022-10-16T01:14:12.460Z,23.94
2022-10-16T01:14:47.300Z,23.93
2022-10-16T01:15:21.708Z,23.91
2022-10-16T01:15:57.194Z,23.93
2022-10-16T01:16:28.604Z,23.93
2022-10-16T01:17:03.212Z,23.93
2022-10-16T01:17:54.562Z,23.94
2022-10-16T01:18:26.079Z,23.96
2022-10-16T01:19:12.758Z,23.96
2022-10-16T01:20:04.455Z,24.00
2022-10-16T01:20:46.022Z,24.00
2022-10-16T01:21:19.614Z,23.97
2022-10-16T01:21:51.098Z,23.96
2022-10-16T01:22:22.588Z,23.98
2022-10-16T01:23:20.286Z,23.97
2022-10-16T01:24:03.838Z,23.94
2022-10-16T01:25:33.750Z,23.91
2022-10-16T01:26:05.232Z,23.88
2022-10-16T01:26:51.226Z,23.91
2022-10-16T01:27:28.419Z,23.93
2022-10-16T01:28:00.162Z,23.91
2022-10-16T01:28:39.650Z,23.92
2022-10-16T01:29:16.050Z,23.93
2022-10-16T01:30:03.821Z,23.93
2022-10-16T01:30:35.361Z,23.91
2022-10-16T01:31:06.865Z,23.91
2022-10-16T01:31:39.673Z,23.94
2022-10-16T01:32:20.093Z,23.93
2022-10-16T01:32:54.187Z,23.91
2022-10-16T01:33:27.362Z,23.92
2022-10-16T01:34:03.567Z,23.92
2022-10-16T01:34:43.289Z,23.89
2022-10-16T01:35:19.369Z,23.91
2022-10-16T01:35:54.038Z,23.92
2022-10-16T01:36:30.163Z,23.93
2022-10-16T01:37:03.563Z,23.91
2022-10-16T01:37:39.393Z,23.89
2022-10-16T01:38:14.371Z,23.90
2022-10-16T01:38:45.982Z,23.89
2022-10-16T01:39:17.730Z,23.88
2022-10-16T01:39:49.361Z,23.88
2022-10-16T01:40:20.901Z,23.90
2022-10-16T01:40:53.466Z,23.90
2022-10-16T01:41:44.711Z,23.89
2022-10-16T01:42:17.523Z,23.91
2022-10-16T01:42:53.808Z,23.91
2022-10-16T01:43:28.136Z,23.90
2022-10-16T01:44:02.494Z,23.91
2022-10-16T01:44:34.411Z,23.90
2022-10-16T01:45:06.367Z,23.92
2022-10-16T01:45:37.827Z,23.91
2022-10-16T01:46:09.348Z,23.86
2022-10-16T01:46:41.986Z,23.89
2022-10-16T01:47:13.550Z,23.90
2022-10-16T01:47:45.050Z,23.89
2022-10-16T01:48:18.150Z,23.89
2022-10-16T01:48:49.734Z,23.90
2022-10-16T01:49:21.590Z,23.86
2022-10-16T01:49:53.111Z,23.88
2022-10-16T01:50:24.637Z,23.90
2022-10-16T01:51:00.808Z,23.89
2022-10-16T01:51:32.401Z,23.87
2022-10-16T01:52:05.790Z,23.89
2022-10-16T01:52:38.263Z,23.88
2022-10-16T01:53:10.393Z,23.89
2022-10-16T01:53:41.932Z,23.89
2022-10-16T01:54:13.558Z,23.88
2022-10-16T01:54:46.075Z,23.86
2022-10-16T01:55:19.506Z,23.84
2022-10-16T01:55:51.037Z,23.86
2022-10-16T01:56:22.772Z,23.87
2022-10-16T01:56:54.264Z,23.86
2022-10-16T01:57:25.898Z,23.87
2022-10-16T01:57:57.421Z,23.87
2022-10-16T01:58:28.997Z,23.87
2022-10-16T01:59:02.821Z,23.86
2022-10-16T01:59:36.592Z,23.86
2022-10-16T02:00:08.874Z,23.84
2022-10-16T02:00:40.876Z,23.85
2022-10-16T02:01:12.622Z,23.89
2022-10-16T02:01:45.810Z,23.88
2022-10-16T02:02:17.817Z,23.86
2022-10-16T02:02:50.638Z,23.84
2022-10-16T02:03:22.214Z,23.84
2022-10-16T02:03:54.878Z,23.83
2022-10-16T02:04:30.698Z,23.84
2022-10-16T02:05:06.621Z,23.82
2022-10-16T02:05:39.949Z,23.82
2022-10-16T02:06:11.598Z,23.80
2022-10-16T02:06:43.189Z,23.80
2022-10-16T02:07:14.991Z,23.82
2022-10-16T02:07:47.806Z,23.83
2022-10-16T02:08:19.708Z,23.81
2022-10-16T02:08:51.366Z,23.83
2022-10-16T02:09:22.966Z,23.82
2022-10-16T02:09:54.958Z,23.79
2022-10-16T02:10:26.674Z,23.79
2022-10-16T02:10:58.323Z,23.77
2022-10-16T02:11:29.779Z,23.80
2022-10-16T02:12:02.282Z,23.79
2022-10-16T02:12:34.202Z,23.78
2022-10-16T02:13:17.408Z,23.81
2022-10-16T02:13:53.289Z,23.79
2022-10-16T02:14:24.836Z,23.81
2022-10-16T02:14:56.404Z,23.82
2022-10-16T02:15:27.881Z,23.78
2022-10-16T02:15:59.657Z,23.77
2022-10-16T02:16:34.794Z,23.80
2022-10-16T02:17:11.318Z,23.79
2022-10-16T02:17:42.913Z,23.78
2022-10-16T02:18:14.428Z,23.76
2022-10-16T02:18:46.005Z,23.80
2022-10-16T02:19:18.025Z,23.82
2022-10-16T02:19:50.112Z,23.82
2022-10-16T02:20:23.506Z,23.80
2022-10-16T02:21:13.406Z,23.80
2022-10-16T02:21:51.628Z,23.77
2022-10-16T02:22:25.024Z,23.73
2022-10-16T02:22:56.796Z,23.78
2022-10-16T02:23:30.915Z,23.78
2022-10-16T02:24:02.423Z,23.77
2022-10-16T02:24:34.874Z,23.77
2022-10-16T02:25:10.064Z,23.76
2022-10-16T02:25:41.617Z,23.76
2022-10-16T02:26:13.725Z,23.79
2022-10-16T02:26:50.950Z,23.79
2022-10-16T02:27:22.408Z,23.76
2022-10-16T02:27:55.046Z,23.76
2022-10-16T02:28:28.618Z,23.73
2022-10-16T02:29:01.430Z,23.68
2022-10-16T02:29:32.913Z,23.64
2022-10-16T02:30:10.106Z,23.69
2022-10-16T02:30:43.102Z,23.71
2022-10-16T02:31:17.149Z,23.72
2022-10-16T02:31:49.815Z,23.71
2022-10-16T02:32:22.249Z,23.73
2022-10-16T02:32:54.124Z,23.74
2022-10-16T02:33:25.710Z,23.72
2022-10-16T02:33:57.542Z,23.71
2022-10-16T02:34:29.073Z,23.72
2022-10-16T02:35:00.666Z,23.74
2022-10-16T02:35:32.195Z,23.75
2022-10-16T02:36:03.748Z,23.73
2022-10-16T02:36:35.238Z,23.76
2022-10-16T02:37:06.897Z,23.76
2022-10-16T02:37:38.659Z,23.77
2022-10-16T02:38:46.826Z,23.77
2022-10-16T02:39:18.279Z,23.74
2022-10-16T02:39:49.791Z,23.75
2022-10-16T02:40:24.334Z,23.76
2022-10-16T02:40:56.980Z,23.78
2022-10-16T02:41:28.500Z,23.77
2022-10-16T02:42:00.054Z,23.76
2022-10-16T02:42:34.871Z,23.78
2022-10-16T02:43:06.380Z,23.79
2022-10-16T02:43:38.010Z,23.78
2022-10-16T02:44:09.570Z,23.77
2022-10-16T02:44:41.123Z,23.77
2022-10-16T02:45:12.685Z,23.78
2022-10-16T02:45:44.224Z,23.76
2022-10-16T02:46:15.802Z,23.72
2022-10-16T02:46:47.426Z,23.75
2022-10-16T02:47:19.042Z,23.74
2022-10-16T02:47:50.628Z,23.74
2022-10-16T02:48:22.191Z,23.76
2022-10-16T02:48:53.763Z,23.76
2022-10-16T02:49:25.339Z,23.77
2022-10-16T02:49:56.925Z,23.74
2022-10-16T02:50:28.526Z,23.74
2022-10-16T02:51:00.088Z,23.76
2022-10-16T02:51:31.667Z,23.76
2022-10-16T02:52:03.274Z,23.72
2022-10-16T02:52:34.919Z,23.71
2022-10-16T02:53:06.550Z,23.72
2022-10-16T02:53:38.199Z,23.72
2022-10-16T02:54:09.852Z,23.73
2022-10-16T02:54:41.370Z,23.73
2022-10-16T02:55:12.916Z,23.73
2022-10-16T02:55:44.429Z,23.71
2022-10-16T02:56:16.002Z,23.72
2022-10-16T02:56:47.536Z,23.72
2022-10-16T02:57:19.114Z,23.72
2022-10-16T02:57:50.622Z,23.72
2022-10-16T02:58:22.159Z,23.73
2022-10-16T02:58:53.654Z,23.72
2022-10-16T02:59:25.194Z,23.74
2022-10-16T02:59:56.726Z,23.75
2022-10-16T03:00:28.330Z,23.75
2022-10-16T03:00:59.895Z,23.75
2022-10-16T03:01:31.459Z,23.76
2022-10-16T03:02:03.016Z,23.76
2022-10-16T03:02:34.539Z,23.76
2022-10-16T03:03:06.065Z,23.79
2022-10-16T03:03:37.572Z,23.77
2022-10-16T03:04:09.164Z,23.74
2022-10-16T03:04:40.775Z,23.77
2022-10-16T03:05:12.311Z,23.75
2022-10-16T03:05:44.565Z,23.75
2022-10-16T03:06:16.122Z,23.78
2022-10-16T03:06:47.649Z,23.78
2022-10-16T03:07:19.186Z,23.79
2022-10-16T03:07:50.692Z,23.77
2022-10-16T03:08:22.335Z,23.80
2022-10-16T03:08:53.876Z,23.80
2022-10-16T03:09:25.455Z,23.79
2022-10-16T03:09:57.057Z,23.79
2022-10-16T03:10:28.627Z,23.78
2022-10-16T03:11:00.179Z,23.79
2022-10-16T03:11:31.637Z,23.80
2022-10-16T03:12:03.270Z,23.79
2022-10-16T03:12:34.809Z,23.81
2022-10-16T03:13:06.373Z,23.80
2022-10-16T03:13:37.900Z,23.80
2022-10-16T03:14:09.487Z,23.79
2022-10-16T03:14:41.146Z,23.77
2022-10-16T03:15:12.923Z,23.80
2022-10-16T03:15:44.778Z,23.79
2022-10-16T03:16:16.282Z,23.77
2022-10-16T03:16:47.796Z,23.79
2022-10-16T03:17:19.327Z,23.80
2022-10-16T03:17:50.945Z,23.81
2022-10-16T03:18:22.454Z,23.80
2022-10-16T03:18:54.103Z,23.81
2022-10-16T03:19:25.654Z,23.81
2022-10-16T03:19:57.193Z,23.78
2022-10-16T03:20:28.793Z,23.79
2022-10-16T03:21:00.351Z,23.78
2022-10-16T03:21:31.977Z,23.78
2022-10-16T03:22:03.673Z,23.78
2022-10-16T03:22:35.212Z,23.80
2022-10-16T03:23:06.739Z,23.81
2022-10-16T03:23:38.285Z,23.80
2022-10-16T03:24:09.794Z,23.79
2022-10-16T03:24:41.305Z,23.79
2022-10-16T09:10:11.015Z,23.55
2022-10-16T09:10:45.394Z,23.56
2022-10-16T09:11:35.488Z,23.54
2022-10-16T09:12:20.675Z,23.52
2022-10-16T09:13:00.757Z,23.54
2022-10-16T09:13:55.099Z,23.49
2022-10-16T09:14:33.819Z,23.52
2022-10-16T09:15:23.338Z,23.54
2022-10-16T09:15:54.652Z,23.56
2022-10-16T09:16:34.107Z,23.54
2022-10-16T09:17:28.657Z,23.52
2022-10-16T09:18:08.768Z,23.55
2022-10-16T09:18:51.722Z,23.58
2022-10-16T09:19:28.994Z,23.53
2022-10-16T09:20:19.145Z,23.56
2022-10-16T09:20:52.093Z,23.59
2022-10-16T09:21:32.545Z,23.53
2022-10-16T09:22:10.531Z,23.51
2022-10-16T09:22:41.820Z,23.55
2022-10-16T09:23:28.744Z,23.58
2022-10-16T09:24:10.802Z,23.60
2022-10-16T09:24:42.080Z,23.54
2022-10-16T09:25:17.968Z,23.55
2022-10-16T09:25:49.712Z,23.56
2022-10-16T09:26:21.106Z,23.51
2022-10-16T09:26:52.424Z,23.48
2022-10-16T09:27:23.772Z,23.51
2022-10-16T09:27:55.072Z,23.52
2022-10-16T09:28:26.458Z,23.53
2022-10-16T09:28:57.846Z,23.54
2022-10-16T09:29:29.171Z,23.54
2022-10-16T09:30:00.469Z,23.55
2022-10-16T09:30:31.739Z,23.56
2022-10-16T09:31:03.034Z,23.51
2022-10-16T09:31:34.623Z,23.52
2022-10-16T09:32:11.406Z,23.58
2022-10-16T09:32:42.997Z,23.63
2022-10-16T09:33:14.271Z,23.60
2022-10-16T09:33:46.279Z,23.62
2022-10-16T09:34:36.586Z,23.55
2022-10-16T09:35:12.092Z,23.57
2022-10-16T09:35:46.507Z,23.56
2022-10-16T09:36:17.851Z,23.51
2022-10-16T09:36:49.155Z,23.52
2022-10-16T09:37:21.216Z,23.54
2022-10-16T09:37:52.970Z,23.57
2022-10-16T09:38:24.179Z,23.58
2022-10-16T09:39:12.545Z,23.62
2022-10-16T09:39:46.552Z,23.53
2022-10-16T09:40:29.844Z,23.56
2022-10-16T09:41:04.300Z,23.55
2022-10-16T09:41:36.250Z,23.56
2022-10-16T09:42:07.801Z,23.51
2022-10-16T09:42:39.339Z,23.55
2022-10-16T09:43:20.009Z,23.53
2022-10-16T09:43:55.256Z,23.58
2022-10-16T09:44:29.816Z,23.60
2022-10-16T09:45:01.388Z,23.56
2022-10-16T09:45:32.916Z,23.60
2022-10-16T09:46:08.125Z,23.58
2022-10-16T09:46:39.893Z,23.58
2022-10-16T09:47:18.615Z,23.62
2022-10-16T09:47:52.843Z,23.63
2022-10-16T09:48:40.605Z,23.66
2022-10-16T09:49:25.070Z,23.61
2022-10-16T09:50:00.173Z,23.60
2022-10-16T09:50:31.731Z,23.55
2022-10-16T09:51:04.030Z,23.55
2022-10-16T09:51:36.265Z,23.56
2022-10-16T09:52:12.648Z,23.60
2022-10-16T09:52:44.227Z,23.60
2022-10-16T09:53:15.741Z,23.55
2022-10-16T09:53:47.539Z,23.54
2022-10-16T09:54:20.072Z,23.58
2022-10-16T09:54:52.390Z,23.56
2022-10-16T09:55:23.920Z,23.56
2022-10-16T09:55:55.520Z,23.60
2022-10-16T09:56:30.867Z,23.61
2022-10-16T09:57:06.386Z,23.58
2022-10-16T09:57:37.957Z,23.58
2022-10-16T09:58:12.496Z,23.53
2022-10-16T09:58:44.280Z,23.57
2022-10-16T09:59:16.716Z,23.57
2022-10-16T09:59:48.858Z,23.61
2022-10-16T10:00:20.509Z,23.56
2022-10-16T10:00:52.773Z,23.56
2022-10-16T10:01:37.053Z,23.59
2022-10-16T10:02:12.178Z,23.64
2022-10-16T10:03:56.305Z,23.66
2022-10-16T10:04:49.365Z,23.62
2022-10-16T10:05:27.339Z,23.65
2022-10-16T10:06:01.982Z,23.65
2022-10-16T10:06:46.031Z,23.63
2022-10-16T10:07:22.469Z,23.66
2022-10-16T10:07:57.624Z,23.60
2022-10-16T10:08:29.256Z,23.56
2022-10-16T10:09:01.914Z,23.52
2022-10-16T10:09:38.892Z,23.53
2022-10-16T10:10:25.487Z,23.52
2022-10-16T10:10:56.982Z,23.52
2022-10-16T10:11:38.077Z,23.57
2022-10-16T10:12:20.695Z,23.58
2022-10-16T10:12:55.020Z,23.60
2022-10-16T10:13:26.642Z,23.61
2022-10-16T10:14:04.916Z,23.58
2022-10-16T10:14:48.518Z,23.57
2022-10-16T10:15:20.043Z,23.60
2022-10-16T10:15:51.721Z,23.56
2022-10-16T10:16:25.992Z,23.58
2022-10-16T10:17:23.324Z,23.61
2022-10-16T10:17:55.446Z,23.65
2022-10-16T10:18:26.989Z,23.64
2022-10-16T10:18:59.178Z,23.67
2022-10-16T10:19:32.932Z,23.66
2022-10-16T10:20:22.750Z,23.66
2022-10-16T10:21:00.804Z,23.62
2022-10-16T10:21:33.682Z,23.63
2022-10-16T10:22:24.143Z,23.62
2022-10-16T10:22:56.242Z,23.60
2022-10-16T10:23:28.905Z,23.63
2022-10-16T10:24:00.442Z,23.63
2022-10-16T10:24:31.996Z,23.60
2022-10-16T10:25:09.325Z,23.61
2022-10-16T10:25:46.656Z,23.62
2022-10-16T10:26:21.869Z,23.62
2022-10-16T10:26:58.712Z,23.62
2022-10-16T10:27:50.722Z,23.56
2022-10-16T10:28:28.514Z,23.62
2022-10-16T10:29:05.744Z,23.60
2022-10-16T10:29:46.958Z,23.62
2022-10-16T10:30:23.811Z,23.62
2022-10-16T10:31:04.752Z,23.58
2022-10-16T10:31:50.245Z,23.59
2022-10-16T10:32:24.426Z,23.55
2022-10-16T10:33:01.169Z,23.50
2022-10-16T10:33:42.235Z,23.45
2022-10-16T10:34:26.049Z,23.54
2022-10-16T10:34:57.557Z,23.60
2022-10-16T10:35:31.993Z,23.66
2022-10-16T10:36:09.968Z,23.68
2022-10-16T10:36:42.036Z,23.69
2022-10-16T10:37:32.016Z,23.71
2022-10-16T10:38:09.415Z,23.72
2022-10-16T10:38:44.272Z,23.73
2022-10-16T10:40:03.214Z,23.63
2022-10-16T10:40:41.875Z,23.67
2022-10-16T10:41:15.992Z,23.68
2022-10-16T10:42:06.330Z,23.73
2022-10-16T10:42:49.698Z,23.70
2022-10-16T10:43:21.350Z,23.73
2022-10-16T10:44:04.840Z,23.73
2022-10-16T10:44:46.002Z,23.71
2022-10-16T10:45:49.791Z,23.70
2022-10-16T10:46:26.848Z,23.67
2022-10-16T10:47:00.003Z,23.72
2022-10-16T10:47:38.859Z,23.72
2022-10-16T10:48:22.553Z,23.67
2022-10-16T10:49:15.649Z,23.61
2022-10-16T10:49:50.181Z,23.67
2022-10-16T10:50:32.927Z,23.70
2022-10-16T10:51:09.096Z,23.72
2022-10-16T10:51:46.001Z,23.73
2022-10-16T10:52:17.519Z,23.70
2022-10-16T10:52:54.719Z,23.66
2022-10-16T10:53:32.352Z,23.70
2022-10-16T10:54:18.967Z,23.71
2022-10-16T10:54:52.122Z,23.73
2022-10-16T10:55:26.465Z,23.71
2022-10-16T10:56:06.757Z,23.73
2022-10-16T10:56:56.721Z,23.73
2022-10-16T10:57:34.581Z,23.69
2022-10-16T10:58:08.812Z,23.70
2022-10-16T10:58:44.430Z,23.72
2022-10-16T10:59:20.516Z,23.64
2022-10-16T10:59:52.034Z,23.64
2022-10-16T11:00:37.317Z,23.64
2022-10-16T11:01:15.106Z,23.65
2022-10-16T11:01:46.652Z,23.70
2022-10-16T11:02:26.544Z,23.71
2022-10-16T11:03:16.385Z,23.63
2022-10-16T11:03:58.540Z,23.70
2022-10-16T11:04:49.141Z,23.69
2022-10-16T11:05:43.632Z,23.73
2022-10-16T11:06:35.390Z,23.76
2022-10-16T11:07:08.864Z,23.73
2022-10-16T11:08:06.500Z,23.73
2022-10-16T11:08:40.970Z,23.72
2022-10-16T11:09:15.117Z,23.71
2022-10-16T11:09:48.984Z,23.74
2022-10-16T11:10:22.175Z,23.73
2022-10-16T11:10:59.019Z,23.65
2022-10-16T11:11:30.482Z,23.71
2022-10-16T11:12:09.769Z,23.66
2022-10-16T11:12:42.643Z,23.68
2022-10-16T11:13:17.033Z,23.70
2022-10-16T11:13:48.544Z,23.74
2022-10-16T11:14:20.823Z,23.74
2022-10-16T11:14:55.202Z,23.74
2022-10-16T11:15:29.278Z,23.68
2022-10-16T11:16:02.948Z,23.72
2022-10-16T11:16:36.596Z,23.74
2022-10-16T11:17:12.466Z,23.77
2022-10-16T11:17:54.545Z,23.73
2022-10-16T11:18:28.731Z,23.72
2022-10-16T11:19:12.217Z,23.76
2022-10-16T11:19:54.704Z,23.75
2022-10-16T11:20:26.199Z,23.76
2022-10-16T11:21:01.741Z,23.77
2022-10-16T11:21:35.640Z,23.76
2022-10-16T11:22:12.990Z,23.77
2022-10-16T11:22:59.620Z,23.75
2022-10-16T11:23:33.933Z,23.79
2022-10-16T11:24:12.888Z,23.77
2022-10-16T11:24:53.005Z,23.77
2022-10-16T11:25:26.875Z,23.74
2022-10-16T11:26:00.413Z,23.73
2022-10-16T11:26:34.049Z,23.74
2022-10-16T11:27:08.192Z,23.75
2022-10-16T11:28:02.925Z,23.77
2022-10-16T11:28:35.876Z,23.71
2022-10-16T11:29:10.131Z,23.69
2022-10-16T11:29:44.742Z,23.73
2022-10-16T11:30:25.904Z,23.69
2022-10-16T11:31:10.113Z,23.65
2022-10-16T11:31:43.439Z,23.72
2022-10-16T11:32:25.897Z,23.70
2022-10-16T11:32:57.421Z,23.74
2022-10-16T11:33:31.455Z,23.75
2022-10-16T11:34:14.844Z,23.73
2022-10-16T11:34:48.823Z,23.74
2022-10-16T11:35:24.695Z,23.76
2022-10-16T11:35:57.609Z,23.75
2022-10-16T11:36:32.280Z,23.78
2022-10-16T11:37:07.575Z,23.77
2022-10-16T11:37:39.986Z,23.75
2022-10-16T11:38:13.703Z,23.80
2022-10-16T11:38:59.729Z,23.80
2022-10-16T11:39:31.327Z,23.72
2022-10-16T11:40:20.706Z,23.78
2022-10-16T11:40:52.848Z,23.79
2022-10-16T11:41:33.153Z,23.79
2022-10-16T11:42:10.132Z,23.79
2022-10-16T11:42:42.878Z,23.77
2022-10-16T11:43:16.498Z,23.79
2022-10-16T11:44:08.287Z,23.79
2022-10-16T11:44:51.917Z,23.80
2022-10-16T11:45:25.209Z,23.80
2022-10-16T11:45:57.256Z,23.79
2022-10-16T11:46:28.893Z,23.80
2022-10-16T11:47:39.942Z,23.78
2022-10-16T11:48:24.548Z,23.79
2022-10-16T11:48:56.031Z,23.79
2022-10-16T11:49:27.974Z,23.76
2022-10-16T11:50:01.057Z,23.77
2022-10-16T11:50:34.138Z,23.72
2022-10-16T11:51:24.029Z,23.76
2022-10-16T11:51:58.836Z,23.79
2022-10-16T11:52:48.968Z,23.82
2022-10-16T11:53:38.344Z,23.80
2022-10-16T11:54:13.000Z,23.81
2022-10-16T11:54:46.517Z,23.73
2022-10-16T11:55:19.015Z,23.74
2022-10-16T11:55:50.563Z,23.77
2022-10-16T11:56:22.865Z,23.79
2022-10-16T11:56:55.124Z,23.78
2022-10-16T11:57:30.748Z,23.73
2022-10-16T11:58:06.684Z,23.75
2022-10-16T11:59:01.216Z,23.75
2022-10-16T11:59:35.251Z,23.79
2022-10-16T12:00:09.970Z,23.81
2022-10-16T12:00:45.213Z,23.76
2022-10-16T12:01:39.408Z,23.76
2022-10-16T12:02:16.690Z,23.76
2022-10-16T12:03:01.030Z,23.70
2022-10-16T12:03:35.099Z,23.72
2022-10-16T12:04:18.186Z,23.77
2022-10-16T12:04:50.921Z,23.79
2022-10-16T12:05:28.962Z,23.83
2022-10-16T12:06:12.211Z,23.79
2022-10-16T12:06:55.395Z,23.82
2022-10-16T12:07:28.785Z,23.80
2022-10-16T12:08:06.347Z,23.79
2022-10-16T12:08:37.930Z,23.81
2022-10-16T12:09:15.453Z,23.80
2022-10-16T12:09:47.041Z,23.79
2022-10-16T12:10:28.364Z,23.81
2022-10-16T12:11:18.466Z,23.83
2022-10-16T12:11:50.001Z,23.80
2022-10-16T12:12:25.554Z,23.83
2022-10-16T12:12:57.449Z,23.80
2022-10-16T12:13:32.703Z,23.81
2022-10-16T12:14:08.062Z,23.83
2022-10-16T12:15:11.451Z,23.82
2022-10-16T12:15:54.621Z,23.80
2022-10-16T12:16:24.167Z,23.81
2022-10-16T12:16:56.856Z,23.84
2022-10-16T12:17:35.309Z,23.88
2022-10-16T12:18:08.298Z,23.85
2022-10-16T12:18:43.104Z,23.89
2022-10-16T12:19:17.845Z,23.89
2022-10-16T12:20:02.613Z,23.84
2022-10-16T12:20:34.290Z,23.81
2022-10-16T12:21:05.842Z,23.81
2022-10-16T12:21:37.401Z,23.82
2022-10-16T12:22:16.465Z,23.85
2022-10-16T12:22:54.991Z,23.85
2022-10-16T12:23:26.641Z,23.85
2022-10-16T12:23:59.132Z,23.80
2022-10-16T12:24:34.396Z,23.77
2022-10-16T12:25:06.081Z,23.82
2022-10-16T12:25:38.091Z,23.85
2022-10-16T12:26:09.854Z,23.82
2022-10-16T12:26:41.385Z,23.84
2022-10-16T12:27:31.758Z,23.86
2022-10-16T12:28:06.329Z,23.88
2022-10-16T12:28:37.915Z,23.89
2022-10-16T12:29:29.035Z,23.89
2022-10-16T12:30:04.297Z,23.88
2022-10-16T12:30:36.403Z,23.88
2022-10-16T12:31:08.344Z,23.88
2022-10-16T12:31:54.486Z,23.90
2022-10-16T12:32:45.746Z,23.87
2022-10-16T12:33:21.194Z,23.82
2022-10-16T12:33:59.541Z,23.76
2022-10-16T12:34:35.220Z,23.82
2022-10-16T12:35:07.244Z,23.84
2022-10-16T12:35:44.206Z,23.86
2022-10-16T12:36:16.423Z,23.86
2022-10-16T12:36:48.007Z,23.86
2022-10-16T12:37:23.787Z,23.84
2022-10-16T12:37:55.489Z,23.82
2022-10-16T12:38:27.015Z,23.84
2022-10-16T12:38:58.633Z,23.82
2022-10-16T12:39:30.150Z,23.83
2022-10-16T12:40:12.026Z,23.84
2022-10-16T12:40:43.580Z,23.86
2022-10-16T12:41:24.553Z,23.83
2022-10-16T12:42:05.194Z,23.85
2022-10-16T12:42:36.766Z,23.87
2022-10-16T12:43:34.397Z,23.87
2022-10-16T12:44:05.896Z,23.89
2022-10-16T12:44:37.379Z,23.86
2022-10-16T12:45:26.981Z,23.90
2022-10-16T12:46:21.002Z,23.91
2022-10-16T12:46:52.539Z,23.86
2022-10-16T12:47:25.238Z,23.88
2022-10-16T12:47:56.872Z,23.87
2022-10-16T12:48:36.866Z,23.84
2022-10-16T12:49:24.008Z,23.84
2022-10-16T12:49:55.639Z,23.81
2022-10-16T12:50:37.518Z,23.82
2022-10-16T12:51:12.728Z,23.87
2022-10-16T12:51:44.361Z,23.89
2022-10-16T12:52:28.464Z,23.83
2022-10-16T12:53:00.855Z,23.83
2022-10-16T12:53:32.427Z,23.86
2022-10-16T12:54:05.026Z,23.88
2022-10-16T12:54:37.282Z,23.90
2022-10-16T12:55:13.726Z,23.90
2022-10-16T12:56:05.137Z,23.80
2022-10-16T12:56:36.627Z,23.80
2022-10-16T12:57:10.711Z,23.83
2022-10-16T12:58:17.369Z,23.79
2022-10-16T12:59:00.740Z,23.83
2022-10-16T12:59:32.264Z,23.84
2022-10-16T13:00:15.071Z,23.86
2022-10-16T13:00:47.245Z,23.88
2022-10-16T13:01:41.605Z,23.86
2022-10-16T13:02:18.883Z,23.86
2022-10-16T13:03:12.307Z,23.87
2022-10-16T13:03:46.866Z,23.84
2022-10-16T13:04:24.219Z,23.85
2022-10-16T13:05:04.706Z,23.84
2022-10-16T13:05:56.409Z,23.85
2022-10-16T13:06:41.647Z,23.86
2022-10-16T13:07:27.201Z,23.87
2022-10-16T13:08:04.773Z,23.91
2022-10-16T13:08:43.111Z,23.91
2022-10-16T13:09:18.590Z,23.89
2022-10-16T13:09:53.710Z,23.87
2022-10-16T13:10:27.064Z,23.86
2022-10-16T13:11:02.848Z,23.86
2022-10-16T13:11:52.890Z,23.79
2022-10-16T13:12:28.163Z,23.85
2022-10-16T13:13:21.632Z,23.91
2022-10-16T13:14:06.115Z,23.91
2022-10-16T13:14:56.127Z,23.92
2022-10-16T13:15:40.654Z,23.88
2022-10-16T13:16:12.108Z,23.89
2022-10-16T13:16:49.524Z,23.82
2022-10-16T13:17:26.069Z,23.87
2022-10-16T13:18:03.932Z,23.87
2022-10-16T13:18:35.462Z,23.84
2022-10-16T13:19:19.023Z,23.89
2022-10-16T13:20:08.893Z,23.83
2022-10-16T13:20:43.472Z,23.87
2022-10-16T13:21:30.071Z,23.88
2022-10-16T13:22:01.566Z,23.88
2022-10-16T13:22:36.150Z,23.89
2022-10-16T13:23:11.778Z,23.89
2022-10-16T13:24:22.511Z,23.88
2022-10-16T13:25:14.005Z,23.87
2022-10-16T13:25:45.733Z,23.84
2022-10-16T13:26:23.126Z,23.85
2022-10-16T13:26:57.325Z,23.84
2022-10-16T13:27:47.165Z,23.84
2022-10-16T13:28:18.950Z,23.81